Cushman, Arkansas
Current Conditions -  °F | °C
As of 4:35 AM on Saturday 22 Nov 2014 (Local Time) from KBVX Reporting Station
Overcast Overcast  
Wind Chill: 46°   Ceiling: 9000
Heat Index: 48°   Visibility: 10mi
Dew Point: 45°   Wind: 5mph
Humidity: 87%   Direction: 190°S
Pressure: 30.2"   Gusts: NA
Location:  35.87°N, 91.75°W
Report Text: KBVX 221035Z AUTO 19004KT 10SM BKN090 OVC100 09/07 A3020 RMK AO1
Loading
Personal Weather Stations






























Interactive Weather Map New forecast layout! Learn more

10-Day Weather Forecast

Advertisements
Track Severe Weather on mobile